createdAt,value
2017-03-25T00:00:23.245Z,0
2017-03-25T00:01:23.227Z,0
2017-03-25T00:02:23.216Z,0
2017-03-25T00:03:22.890Z,0
2017-03-25T00:04:23.475Z,0
2017-03-25T00:05:23.453Z,0
2017-03-25T00:06:23.515Z,0
2017-03-25T00:07:23.425Z,0
2017-03-25T00:08:23.086Z,0
2017-03-25T00:09:23.067Z,0
2017-03-25T00:10:23.442Z,0
2017-03-25T00:11:23.353Z,0
2017-03-25T00:12:23.319Z,0
2017-03-25T00:13:23.306Z,0
2017-03-25T00:14:23.263Z,0
2017-03-25T00:15:23.251Z,0
2017-03-25T00:16:23.252Z,0
2017-03-25T00:17:22.955Z,0
2017-03-25T00:18:23.188Z,0
2017-03-25T00:19:23.265Z,0
2017-03-25T00:20:22.835Z,0
2017-03-25T00:21:22.556Z,0
2017-03-25T00:22:22.895Z,0
2017-03-25T00:23:22.781Z,0
2017-03-25T00:24:22.776Z,0
2017-03-25T00:25:23.158Z,0
2017-03-25T00:26:23.077Z,0
2017-03-25T00:27:23.116Z,0
2017-03-25T00:28:23.034Z,0
2017-03-25T00:29:23.007Z,0
2017-03-25T00:30:22.624Z,0
2017-03-25T00:31:23.025Z,0
2017-03-25T00:32:22.879Z,0
2017-03-25T00:33:22.957Z,0
2017-03-25T00:34:22.256Z,0
2017-03-25T00:35:22.665Z,0
2017-03-25T00:36:22.505Z,0
2017-03-25T00:37:22.932Z,0
2017-03-25T00:38:22.465Z,0
2017-03-25T00:39:22.434Z,0
2017-03-25T00:40:22.715Z,0
2017-03-25T00:41:22.705Z,0
2017-03-25T00:42:22.436Z,0
2017-03-25T00:43:22.730Z,0
2017-03-25T00:44:22.133Z,0
2017-03-25T00:45:22.724Z,0
2017-03-25T00:46:22.615Z,0
2017-03-25T00:47:22.706Z,0
2017-03-25T00:48:22.624Z,0
2017-03-25T00:49:22.571Z,0
2017-03-25T00:50:22.515Z,0
2017-03-25T00:51:22.507Z,0
2017-03-25T00:52:22.176Z,0
2017-03-25T00:53:22.445Z,0
2017-03-25T00:54:22.445Z,0
2017-03-25T00:55:22.185Z,0
2017-03-25T00:56:21.845Z,0
2017-03-25T00:57:22.458Z,0
2017-03-25T00:58:22.391Z,0
2017-03-25T00:59:22.103Z,0
2017-03-25T01:00:22.085Z,0
2017-03-25T01:01:22.336Z,0
2017-03-25T01:02:21.965Z,0
2017-03-25T01:03:22.255Z,0
2017-03-25T01:04:22.394Z,0
2017-03-25T01:05:22.317Z,0
2017-03-25T01:06:22.169Z,0
2017-03-25T01:07:22.245Z,0
2017-03-25T01:08:21.926Z,0
2017-03-25T01:09:21.499Z,0
2017-03-25T01:10:21.906Z,0
2017-03-25T01:11:21.766Z,0
2017-03-25T01:12:21.765Z,0
2017-03-25T01:13:21.716Z,0
2017-03-25T01:14:21.704Z,0
2017-03-25T01:15:22.014Z,0
2017-03-25T01:16:21.975Z,0
2017-03-25T01:17:21.953Z,0
2017-03-25T01:18:21.596Z,0
2017-03-25T01:19:21.584Z,0
2017-03-25T01:20:21.716Z,0
2017-03-25T01:21:21.562Z,0
2017-03-25T01:22:21.540Z,0
2017-03-25T01:23:21.509Z,0
2017-03-25T01:24:21.470Z,0
2017-03-25T01:25:21.781Z,0
2017-03-25T01:26:21.471Z,0
2017-03-25T01:27:21.727Z,0
2017-03-25T01:28:21.399Z,0
2017-03-25T01:29:21.724Z,0
2017-03-25T01:30:21.047Z,0
2017-03-25T01:31:21.361Z,0
2017-03-25T01:32:21.327Z,0
2017-03-25T01:33:21.695Z,0
2017-03-25T01:34:21.265Z,0
2017-03-25T01:35:21.557Z,0
2017-03-25T01:36:21.584Z,0
2017-03-25T01:37:20.584Z,0
2017-03-25T01:38:20.878Z,0
2017-03-25T01:39:21.165Z,0
2017-03-25T01:40:21.445Z,0
2017-03-25T01:41:21.193Z,0
2017-03-25T01:42:21.094Z,0
2017-03-25T01:43:21.542Z,0
2017-03-25T01:44:21.059Z,0
2017-03-25T01:45:21.337Z,0
2017-03-25T01:46:21.015Z,0
2017-03-25T01:47:21.306Z,0
2017-03-25T01:48:20.960Z,0
2017-03-25T01:49:20.952Z,0
2017-03-25T01:50:21.235Z,0
2017-03-25T01:51:21.206Z,0
2017-03-25T01:52:20.897Z,0
2017-03-25T01:53:21.176Z,0
2017-03-25T01:54:20.839Z,0
2017-03-25T01:55:21.129Z,0
2017-03-25T01:56:20.487Z,0
2017-03-25T01:57:21.076Z,0
2017-03-25T01:58:20.755Z,0
2017-03-25T01:59:20.744Z,0
2017-03-25T02:00:20.395Z,0
2017-03-25T02:01:20.996Z,0
2017-03-25T02:02:20.677Z,0
2017-03-25T02:03:20.944Z,0
2017-03-25T02:04:20.926Z,0
2017-03-25T02:05:20.625Z,0
2017-03-25T02:06:20.265Z,0
2017-03-25T02:07:20.651Z,0
2017-03-25T02:08:20.834Z,0
2017-03-25T02:09:20.833Z,0
2017-03-25T02:10:20.493Z,0
2017-03-25T02:11:20.780Z,0
2017-03-25T02:12:20.151Z,0
2017-03-25T02:13:20.434Z,0
2017-03-25T02:14:20.095Z,0
2017-03-25T02:15:20.714Z,0
2017-03-25T02:16:20.366Z,0
2017-03-25T02:17:20.665Z,0
2017-03-25T02:18:20.638Z,0
2017-03-25T02:19:20.287Z,0
2017-03-25T02:20:20.576Z,0
2017-03-25T02:21:19.951Z,0
2017-03-25T02:22:19.943Z,0
2017-03-25T02:23:20.515Z,0
2017-03-25T02:24:19.585Z,0
2017-03-25T02:25:20.186Z,0
2017-03-25T02:26:19.900Z,0
2017-03-25T02:27:20.206Z,0
2017-03-25T02:28:20.406Z,0
2017-03-25T02:29:20.076Z,0
2017-03-25T02:30:20.065Z,0
2017-03-25T02:31:20.371Z,0
2017-03-25T02:32:20.315Z,0
2017-03-25T02:33:20.323Z,0
2017-03-25T02:34:19.985Z,0
2017-03-25T02:35:19.646Z,0
2017-03-25T02:36:20.248Z,0
2017-03-25T02:37:20.237Z,0
2017-03-25T02:38:19.665Z,0
2017-03-25T02:39:19.626Z,0
2017-03-25T02:40:19.846Z,0
2017-03-25T02:41:20.173Z,0
2017-03-25T02:42:20.095Z,0
2017-03-25T02:43:19.294Z,0
2017-03-25T02:44:19.436Z,0
2017-03-25T02:45:20.040Z,0
2017-03-25T02:46:19.405Z,0
2017-03-25T02:47:19.982Z,0
2017-03-25T02:48:19.384Z,0
2017-03-25T02:49:19.696Z,0
2017-03-25T02:50:19.626Z,0
2017-03-25T02:51:19.611Z,0
2017-03-25T02:52:19.886Z,0
2017-03-25T02:53:19.884Z,0
2017-03-25T02:54:19.857Z,0
2017-03-25T02:55:19.515Z,0
2017-03-25T02:56:19.807Z,0
2017-03-25T02:57:19.466Z,0
2017-03-25T02:58:19.457Z,0
2017-03-25T02:59:19.746Z,0
2017-03-25T03:00:19.707Z,0
2017-03-25T03:01:19.687Z,0
2017-03-25T03:02:19.367Z,0
2017-03-25T03:03:19.047Z,0
2017-03-25T03:04:19.337Z,0
2017-03-25T03:05:19.307Z,0
2017-03-25T03:06:18.988Z,0
2017-03-25T03:07:19.254Z,0
2017-03-25T03:08:19.237Z,0
2017-03-25T03:09:19.563Z,0
2017-03-25T03:10:19.186Z,0
2017-03-25T03:11:19.472Z,0
2017-03-25T03:12:18.863Z,0
2017-03-25T03:13:18.816Z,0
2017-03-25T03:14:19.404Z,0
2017-03-25T03:15:19.086Z,0
2017-03-25T03:16:19.061Z,0
2017-03-25T03:17:19.041Z,0
2017-03-25T03:18:19.324Z,0
2017-03-25T03:19:19.286Z,0
2017-03-25T03:20:18.979Z,0
2017-03-25T03:21:19.001Z,0
2017-03-25T03:22:19.286Z,0
2017-03-25T03:23:19.233Z,0
2017-03-25T03:24:19.202Z,0
2017-03-25T03:25:18.877Z,0
2017-03-25T03:26:18.557Z,0
2017-03-25T03:27:19.256Z,0
2017-03-25T03:28:19.108Z,0
2017-03-25T03:29:19.093Z,0
2017-03-25T03:30:18.769Z,0
2017-03-25T03:31:19.056Z,0
2017-03-25T03:32:18.738Z,0
2017-03-25T03:33:19.057Z,0
2017-03-25T03:34:18.964Z,0
2017-03-25T03:35:18.936Z,0
2017-03-25T03:36:18.619Z,0
2017-03-25T03:37:18.585Z,0
2017-03-25T03:38:18.258Z,0
2017-03-25T03:39:18.857Z,0
2017-03-25T03:40:18.839Z,0
2017-03-25T03:41:18.825Z,0
2017-03-25T03:42:18.792Z,0
2017-03-25T03:43:18.784Z,0
2017-03-25T03:44:18.774Z,0
2017-03-25T03:45:18.466Z,0
2017-03-25T03:46:18.718Z,0
2017-03-25T03:47:18.763Z,0
2017-03-25T03:48:18.376Z,0
2017-03-25T03:49:18.407Z,0
2017-03-25T03:50:18.643Z,0
2017-03-25T03:51:18.643Z,0
2017-03-25T03:52:17.965Z,0
2017-03-25T03:53:18.656Z,0
2017-03-25T03:54:18.317Z,0
2017-03-25T03:55:18.507Z,0
2017-03-25T03:56:17.907Z,0
2017-03-25T03:57:18.246Z,0
2017-03-25T03:58:17.897Z,0
2017-03-25T03:59:18.176Z,0
2017-03-25T04:00:18.455Z,0
2017-03-25T04:01:18.076Z,0
2017-03-25T04:02:18.997Z,0
2017-03-25T04:03:18.027Z,0
2017-03-25T04:04:18.373Z,0
2017-03-25T04:05:17.667Z,0
2017-03-25T04:06:17.957Z,0
2017-03-25T04:07:18.388Z,0
2017-03-25T04:08:17.986Z,0
2017-03-25T04:09:18.257Z,0
2017-03-25T04:10:18.176Z,0
2017-03-25T04:11:17.863Z,0
2017-03-25T04:12:18.217Z,0
2017-03-25T04:13:17.883Z,0
2017-03-25T04:14:18.109Z,0
2017-03-25T04:15:17.768Z,0
2017-03-25T04:16:18.042Z,0
2017-03-25T04:17:18.029Z,0
2017-03-25T04:18:17.996Z,0
2017-03-25T04:19:17.669Z,0
2017-03-25T04:20:17.659Z,0
2017-03-25T04:21:18.046Z,0
2017-03-25T04:22:17.598Z,0
2017-03-25T04:23:17.612Z,0
2017-03-25T04:24:17.565Z,0
2017-03-25T04:25:17.297Z,0
2017-03-25T04:26:17.505Z,0
2017-03-25T04:27:17.854Z,0
2017-03-25T04:28:17.452Z,0
2017-03-25T04:29:17.747Z,0
2017-03-25T04:30:17.101Z,0
2017-03-25T04:31:17.696Z,0
2017-03-25T04:32:17.675Z,0
2017-03-25T04:33:17.350Z,0
2017-03-25T04:34:17.635Z,0
2017-03-25T04:35:17.296Z,0
2017-03-25T04:36:17.585Z,0
2017-03-25T04:37:17.557Z,0
2017-03-25T04:38:17.521Z,0
2017-03-25T04:39:17.562Z,0
2017-03-25T04:40:16.878Z,0
2017-03-25T04:41:16.547Z,0
2017-03-25T04:42:16.818Z,0
2017-03-25T04:43:17.123Z,0
2017-03-25T04:44:17.396Z,0
2017-03-25T04:45:17.394Z,0
2017-03-25T04:46:16.749Z,0
2017-03-25T04:47:17.041Z,0
2017-03-25T04:48:16.998Z,0
2017-03-25T04:49:17.292Z,0
2017-03-25T04:50:16.967Z,0
2017-03-25T04:51:16.939Z,4
2017-03-25T04:52:17.218Z,4
2017-03-25T04:53:16.897Z,0
2017-03-25T04:54:16.577Z,4
2017-03-25T04:55:17.142Z,4
2017-03-25T04:56:17.173Z,4
2017-03-25T04:57:16.486Z,4
2017-03-25T04:58:16.785Z,8
2017-03-25T04:59:17.058Z,8
2017-03-25T05:00:17.133Z,8
2017-03-25T05:01:16.707Z,8
2017-03-25T05:02:16.988Z,8
2017-03-25T05:03:16.967Z,12
2017-03-25T05:04:16.981Z,16
2017-03-25T05:05:16.916Z,20
2017-03-25T05:06:16.375Z,20
2017-03-25T05:07:16.566Z,24
2017-03-25T05:08:16.855Z,28
2017-03-25T05:09:16.526Z,36
2017-03-25T05:10:16.810Z,40
2017-03-25T05:11:16.795Z,48
2017-03-25T05:12:16.505Z,52
2017-03-25T05:13:16.434Z,56
2017-03-25T05:14:16.717Z,68
2017-03-25T05:15:16.708Z,76
2017-03-25T05:16:16.683Z,84
2017-03-25T05:17:16.676Z,92
2017-03-25T05:18:16.647Z,104
2017-03-25T05:19:16.357Z,120
2017-03-25T05:20:16.603Z,136
2017-03-25T05:21:16.367Z,148
2017-03-25T05:22:16.221Z,164
2017-03-25T05:23:16.527Z,176
2017-03-25T05:24:16.195Z,192
2017-03-25T05:25:16.154Z,212
2017-03-25T05:26:16.147Z,232
2017-03-25T05:27:16.178Z,252
2017-03-25T05:28:16.136Z,276
2017-03-25T05:29:16.136Z,304
2017-03-25T05:30:16.084Z,328
2017-03-25T05:31:16.336Z,356
2017-03-25T05:32:16.350Z,380
2017-03-25T05:33:16.286Z,404
2017-03-25T05:34:16.298Z,428
2017-03-25T05:35:15.926Z,456
2017-03-25T05:36:16.224Z,480
2017-03-25T05:37:15.905Z,508
2017-03-25T05:38:15.584Z,536
2017-03-25T05:39:16.166Z,564
2017-03-25T05:40:15.323Z,592
2017-03-25T05:41:15.838Z,624
2017-03-25T05:42:15.788Z,656
2017-03-25T05:43:15.777Z,680
2017-03-25T05:44:16.126Z,704
2017-03-25T05:45:15.714Z,728
2017-03-25T05:46:15.985Z,748
2017-03-25T05:47:15.674Z,768
2017-03-25T05:48:15.957Z,788
2017-03-25T05:49:15.926Z,812
2017-03-25T05:50:14.974Z,832
2017-03-25T05:51:15.896Z,860
2017-03-25T05:52:15.855Z,884
2017-03-25T05:53:15.846Z,912
2017-03-25T05:54:15.856Z,940
2017-03-25T05:55:15.816Z,968
2017-03-25T05:56:15.461Z,992
2017-03-25T05:57:15.137Z,1016
2017-03-25T05:58:15.128Z,1044
2017-03-25T05:59:15.431Z,1068
2017-03-25T06:00:15.776Z,1100
2017-03-25T06:01:15.335Z,1136
2017-03-25T06:02:15.311Z,1180
2017-03-25T06:03:15.629Z,1224
2017-03-25T06:04:15.279Z,1272
2017-03-25T06:05:15.587Z,1320
2017-03-25T06:06:15.545Z,1372
2017-03-25T06:07:15.220Z,1432
2017-03-25T06:08:15.189Z,1500
2017-03-25T06:09:15.469Z,1576
2017-03-25T06:10:15.486Z,1660
2017-03-25T06:11:15.430Z,1752
2017-03-25T06:12:15.083Z,1848
2017-03-25T06:13:15.077Z,1952
2017-03-25T06:14:14.795Z,2056
2017-03-25T06:15:15.037Z,2164
2017-03-25T06:16:15.313Z,2260
2017-03-25T06:17:15.364Z,2364
2017-03-25T06:18:14.966Z,2460
2017-03-25T06:19:15.046Z,2552
2017-03-25T06:20:14.646Z,2648
2017-03-25T06:21:14.967Z,2736
2017-03-25T06:22:14.875Z,2816
2017-03-25T06:23:14.606Z,2880
2017-03-25T06:24:14.536Z,2944
2017-03-25T06:25:14.535Z,3012
2017-03-25T06:26:15.096Z,3088
2017-03-25T06:27:15.091Z,3168
2017-03-25T06:28:14.745Z,3248
2017-03-25T06:29:14.797Z,3336
2017-03-25T06:30:14.702Z,3440
2017-03-25T06:31:14.453Z,3548
2017-03-25T06:32:14.962Z,3648
2017-03-25T06:33:14.946Z,3752
2017-03-25T06:34:14.936Z,3844
2017-03-25T06:35:14.728Z,3956
2017-03-25T06:36:14.884Z,4076
2017-03-25T06:37:14.305Z,4208
2017-03-25T06:38:14.836Z,4364
2017-03-25T06:39:13.918Z,4552
2017-03-25T06:40:14.536Z,4736
2017-03-25T06:41:14.557Z,4916
2017-03-25T06:42:14.446Z,5076
2017-03-25T06:43:14.826Z,5260
2017-03-25T06:44:14.406Z,5424
2017-03-25T06:45:14.376Z,5576
2017-03-25T06:46:14.465Z,5712
2017-03-25T06:47:14.099Z,5808
2017-03-25T06:48:14.706Z,5884
2017-03-25T06:49:14.715Z,5996
2017-03-25T06:50:14.706Z,6160
2017-03-25T06:51:14.557Z,6388
2017-03-25T06:52:14.287Z,6656
2017-03-25T06:53:14.516Z,6972
2017-03-25T06:54:14.486Z,7292
2017-03-25T06:55:14.225Z,7672
2017-03-25T06:56:14.447Z,8144
2017-03-25T06:57:14.145Z,8768
2017-03-25T06:58:13.796Z,9444
2017-03-25T06:59:13.785Z,10456
2017-03-25T07:00:14.417Z,13192
2017-03-25T07:01:14.469Z,24576
2017-03-25T07:02:14.375Z,36384
2017-03-25T07:03:14.018Z,43488
2017-03-25T07:04:13.680Z,46080
2017-03-25T07:05:13.646Z,45696
2017-03-25T07:06:14.329Z,47328
2017-03-25T07:07:13.953Z,57920
2017-03-25T07:08:13.923Z,59232
2017-03-25T07:09:13.879Z,54752
2017-03-25T07:10:13.905Z,56352
2017-03-25T07:11:13.877Z,57408
2017-03-25T07:12:13.861Z,62496
2017-03-25T07:13:14.138Z,64128
2017-03-25T07:14:14.097Z,63456
2017-03-25T07:15:14.066Z,62592
2017-03-25T07:16:13.768Z,59424
2017-03-25T07:17:14.136Z,59072
2017-03-25T07:18:14.030Z,62016
2017-03-25T07:19:13.686Z,61216
2017-03-25T07:20:14.056Z,63968
2017-03-25T07:21:13.656Z,63648
2017-03-25T07:22:14.058Z,61952
2017-03-25T07:23:13.626Z,62336
2017-03-25T07:24:13.607Z,62880
2017-03-25T07:25:13.905Z,62016
2017-03-25T07:26:13.566Z,37056
2017-03-25T07:27:13.247Z,13908
2017-03-25T07:28:13.832Z,10932
2017-03-25T07:29:13.966Z,10372
2017-03-25T07:30:13.501Z,10120
2017-03-25T07:31:13.919Z,9996
2017-03-25T07:32:13.452Z,9884
2017-03-25T07:33:13.546Z,9792
2017-03-25T07:34:13.157Z,9680
2017-03-25T07:35:13.522Z,9464
2017-03-25T07:36:13.707Z,9216
2017-03-25T07:37:13.066Z,9208
2017-03-25T07:38:13.377Z,9356
2017-03-25T07:39:13.348Z,9564
2017-03-25T07:40:13.315Z,9648
2017-03-25T07:41:13.644Z,9768
2017-03-25T07:42:13.620Z,9824
2017-03-25T07:43:13.595Z,9832
2017-03-25T07:44:13.588Z,9844
2017-03-25T07:45:13.265Z,9916
2017-03-25T07:46:13.542Z,10032
2017-03-25T07:47:13.288Z,10108
2017-03-25T07:48:13.605Z,9056
2017-03-25T07:49:13.206Z,10528
2017-03-25T07:50:13.547Z,10920
2017-03-25T07:51:12.906Z,10988
2017-03-25T07:52:13.565Z,11316
2017-03-25T07:53:13.457Z,11652
2017-03-25T07:54:13.136Z,12188
2017-03-25T07:55:13.107Z,13036
2017-03-25T07:56:13.467Z,14900
2017-03-25T07:57:13.120Z,32000
2017-03-25T07:58:12.799Z,56384
2017-03-25T07:59:13.491Z,73280
2017-03-25T08:00:13.507Z,75200
2017-03-25T08:01:13.376Z,68064
2017-03-25T08:02:13.447Z,64512
2017-03-25T08:03:13.037Z,64704
2017-03-25T08:04:13.026Z,72448
2017-03-25T08:05:13.346Z,76256
2017-03-25T08:06:13.009Z,71040
2017-03-25T08:07:13.316Z,68480
2017-03-25T08:08:13.306Z,68608
2017-03-25T08:09:13.012Z,73312
2017-03-25T08:10:13.309Z,71456
2017-03-25T08:11:13.286Z,66144
2017-03-25T08:12:12.971Z,72320
2017-03-25T08:13:12.995Z,75712
2017-03-25T08:14:13.262Z,73408
2017-03-25T08:15:12.948Z,72640
2017-03-25T08:16:13.253Z,77088
2017-03-25T08:17:13.271Z,75200
2017-03-25T08:18:12.932Z,70432
2017-03-25T08:19:13.225Z,70528
2017-03-25T08:20:12.591Z,76640
2017-03-25T08:21:12.901Z,77888
2017-03-25T08:22:13.225Z,74496
2017-03-25T08:23:12.926Z,80608
2017-03-25T08:24:12.943Z,82240
2017-03-25T08:25:12.589Z,78400
2017-03-25T08:26:13.176Z,80992
2017-03-25T08:27:13.185Z,79712
2017-03-25T08:28:13.249Z,80704
2017-03-25T08:29:13.189Z,83392
2017-03-25T08:30:12.887Z,83040
2017-03-25T08:31:12.557Z,80448
2017-03-25T08:32:12.847Z,86048
2017-03-25T08:33:13.167Z,86080
2017-03-25T08:34:13.228Z,77184
2017-03-25T08:35:13.156Z,78016
2017-03-25T08:36:13.153Z,84032
2017-03-25T08:37:13.166Z,77824
2017-03-25T08:38:12.828Z,75520
2017-03-25T08:39:13.136Z,82176
2017-03-25T08:40:12.868Z,83232
2017-03-25T08:41:12.833Z,73888
2017-03-25T08:42:13.131Z,75776
2017-03-25T08:43:13.166Z,81312
2017-03-25T08:44:12.818Z,78944
2017-03-25T08:45:12.557Z,75360
2017-03-25T08:46:13.158Z,79680
2017-03-25T08:47:13.126Z,79168
2017-03-25T08:48:13.117Z,76288
2017-03-25T08:49:12.813Z,78048
2017-03-25T08:50:13.175Z,83392
2017-03-25T08:51:12.587Z,80704
2017-03-25T08:52:12.487Z,75168
2017-03-25T08:53:13.107Z,74464
2017-03-25T08:54:12.800Z,76224
2017-03-25T08:55:12.281Z,75776
2017-03-25T08:56:12.480Z,76288
2017-03-25T08:57:12.828Z,81632
2017-03-25T08:58:13.074Z,82656
2017-03-25T08:59:13.109Z,76352
2017-03-25T09:00:13.078Z,74432
2017-03-25T09:01:13.111Z,78528
2017-03-25T09:02:12.775Z,81120
2017-03-25T09:03:12.477Z,79936
2017-03-25T09:04:12.777Z,77120
2017-03-25T09:05:12.770Z,76992
2017-03-25T09:06:12.759Z,73568
2017-03-25T09:07:13.122Z,78784
2017-03-25T09:08:13.090Z,82624
2017-03-25T09:09:12.448Z,77248
2017-03-25T09:10:13.057Z,73728
2017-03-25T09:11:12.756Z,74688
2017-03-25T09:12:13.123Z,75296
2017-03-25T09:13:13.048Z,71392
2017-03-25T09:14:12.763Z,74400
2017-03-25T09:15:12.723Z,79072
2017-03-25T09:16:13.025Z,76352
2017-03-25T09:17:12.436Z,77120
2017-03-25T09:18:12.738Z,76416
2017-03-25T09:19:12.734Z,73984
2017-03-25T09:20:13.016Z,72672
2017-03-25T09:21:13.027Z,71008
2017-03-25T09:22:13.016Z,71680
2017-03-25T09:23:13.024Z,74592
2017-03-25T09:24:13.016Z,67008
2017-03-25T09:25:13.020Z,66176
2017-03-25T09:26:13.000Z,67072
2017-03-25T09:27:12.697Z,67680
2017-03-25T09:28:12.716Z,69696
2017-03-25T09:29:13.006Z,68160
2017-03-25T09:30:13.066Z,70432
2017-03-25T09:31:12.697Z,72288
2017-03-25T09:32:12.699Z,70560
2017-03-25T09:33:13.000Z,70976
2017-03-25T09:34:13.110Z,68224
2017-03-25T09:35:13.080Z,69344
2017-03-25T09:36:12.744Z,72928
2017-03-25T09:37:13.024Z,76064
2017-03-25T09:38:12.998Z,72192
2017-03-25T09:39:13.002Z,70080
2017-03-25T09:40:13.033Z,68096
2017-03-25T09:41:12.979Z,67136
2017-03-25T09:42:12.968Z,67040
2017-03-25T09:43:12.681Z,70848
2017-03-25T09:44:12.955Z,70496
2017-03-25T09:45:12.373Z,69440
2017-03-25T09:46:12.957Z,65984
2017-03-25T09:47:12.956Z,57600
2017-03-25T09:48:12.344Z,62624
2017-03-25T09:49:12.953Z,59680
2017-03-25T09:50:12.938Z,60928
2017-03-25T09:51:12.327Z,61376
2017-03-25T09:52:12.637Z,62176
2017-03-25T09:53:12.662Z,59872
2017-03-25T09:54:12.648Z,54880
2017-03-25T09:55:12.617Z,55104
2017-03-25T09:56:12.639Z,57632
2017-03-25T09:57:12.942Z,56064
2017-03-25T09:58:12.930Z,55488
2017-03-25T09:59:12.671Z,52352
2017-03-25T10:00:12.989Z,54976
2017-03-25T10:01:13.028Z,55072
2017-03-25T10:02:12.703Z,54976
2017-03-25T10:03:12.664Z,55168
2017-03-25T10:04:12.632Z,55616
2017-03-25T10:05:12.417Z,56896
2017-03-25T10:06:12.591Z,56896
2017-03-25T10:07:12.943Z,57568
2017-03-25T10:08:12.898Z,56448
2017-03-25T10:09:12.921Z,55168
2017-03-25T10:10:12.848Z,52576
2017-03-25T10:11:12.248Z,52224
2017-03-25T10:12:12.952Z,50464
2017-03-25T10:13:12.850Z,53120
2017-03-25T10:14:12.279Z,54208
2017-03-25T10:15:12.531Z,51040
2017-03-25T10:16:12.521Z,39648
2017-03-25T10:17:12.534Z,24288
2017-03-25T10:18:12.861Z,47552
2017-03-25T10:19:12.278Z,47392
2017-03-25T10:20:12.508Z,48352
2017-03-25T10:21:12.797Z,48224
2017-03-25T10:22:12.204Z,43168
2017-03-25T10:23:12.842Z,25440
2017-03-25T10:24:12.488Z,19968
2017-03-25T10:25:12.788Z,20576
2017-03-25T10:26:12.462Z,20256
2017-03-25T10:27:12.573Z,20896
2017-03-25T10:28:12.777Z,24672
2017-03-25T10:29:12.454Z,32640
2017-03-25T10:30:12.752Z,40448
2017-03-25T10:31:12.750Z,44896
2017-03-25T10:32:12.454Z,43872
2017-03-25T10:33:12.740Z,44448
2017-03-25T10:34:12.735Z,44192
2017-03-25T10:35:12.720Z,38720
2017-03-25T10:36:12.098Z,38336
2017-03-25T10:37:12.463Z,36096
2017-03-25T10:38:12.392Z,28704
2017-03-25T10:39:12.425Z,29888
2017-03-25T10:40:12.797Z,23264
2017-03-25T10:41:12.748Z,24736
2017-03-25T10:42:12.433Z,18816
2017-03-25T10:43:12.713Z,14384
2017-03-25T10:44:12.395Z,14504
2017-03-25T10:45:12.318Z,14244
2017-03-25T10:46:12.622Z,12304
2017-03-25T10:47:12.019Z,13388
2017-03-25T10:48:12.359Z,16352
2017-03-25T10:49:11.979Z,16800
2017-03-25T10:50:12.586Z,19296
2017-03-25T10:51:12.667Z,19776
2017-03-25T10:52:11.957Z,18944
2017-03-25T10:53:12.653Z,19200
2017-03-25T10:54:12.307Z,22496
2017-03-25T10:55:12.286Z,28800
2017-03-25T10:56:12.239Z,53216
2017-03-25T10:57:12.525Z,54240
2017-03-25T10:58:12.207Z,25600
2017-03-25T10:59:12.508Z,21440
2017-03-25T11:00:11.886Z,20064
2017-03-25T11:01:12.487Z,20160
2017-03-25T11:02:11.909Z,19456
2017-03-25T11:03:12.176Z,9704
2017-03-25T11:04:12.155Z,11468
2017-03-25T11:05:12.441Z,13616
2017-03-25T11:06:12.456Z,12404
2017-03-25T11:07:12.130Z,10976
2017-03-25T11:08:12.128Z,11340
2017-03-25T11:09:11.827Z,9780
2017-03-25T11:10:12.389Z,9864
2017-03-25T11:11:12.377Z,11348
2017-03-25T11:12:12.361Z,11372
2017-03-25T11:13:12.369Z,11356
2017-03-25T11:14:12.138Z,11112
2017-03-25T11:15:12.065Z,10968
2017-03-25T11:16:12.326Z,10932
2017-03-25T11:17:12.116Z,10928
2017-03-25T11:18:12.483Z,10896
2017-03-25T11:19:12.296Z,10836
2017-03-25T11:20:12.025Z,10784
2017-03-25T11:21:12.021Z,10680
2017-03-25T11:22:12.314Z,10668
2017-03-25T11:23:11.957Z,10648
2017-03-25T11:24:12.386Z,10376
2017-03-25T11:25:12.246Z,10128
2017-03-25T11:26:11.932Z,10188
2017-03-25T11:27:11.955Z,10072
2017-03-25T11:28:12.208Z,9844
2017-03-25T11:29:11.956Z,9644
2017-03-25T11:30:12.036Z,9568
2017-03-25T11:31:12.288Z,9820
2017-03-25T11:32:11.846Z,9528
2017-03-25T11:33:12.158Z,9892
2017-03-25T11:34:12.197Z,9936
2017-03-25T11:35:12.156Z,9856
2017-03-25T11:36:12.225Z,9820
2017-03-25T11:37:12.147Z,9836
2017-03-25T11:38:12.114Z,9264
2017-03-25T11:39:11.785Z,9068
2017-03-25T11:40:11.783Z,9488
2017-03-25T11:41:12.166Z,9756
2017-03-25T11:42:12.077Z,9772
2017-03-25T11:43:12.121Z,9648
2017-03-25T11:44:12.170Z,9672
2017-03-25T11:45:12.046Z,9680
2017-03-25T11:46:12.026Z,9644
2017-03-25T11:47:12.018Z,9652
2017-03-25T11:48:11.708Z,9688
2017-03-25T11:49:11.736Z,9680
2017-03-25T11:50:11.367Z,9744
2017-03-25T11:51:11.676Z,9616
2017-03-25T11:52:11.035Z,9608
2017-03-25T11:53:11.959Z,9600
2017-03-25T11:54:11.640Z,9616
2017-03-25T11:55:11.936Z,9576
2017-03-25T11:56:11.917Z,9588
2017-03-25T11:57:11.296Z,9740
2017-03-25T11:58:11.917Z,9740
2017-03-25T11:59:11.273Z,9800
2017-03-25T12:00:11.891Z,9760
2017-03-25T12:01:11.555Z,9804
2017-03-25T12:02:11.856Z,9724
2017-03-25T12:03:11.519Z,9836
2017-03-25T12:04:11.828Z,9768
2017-03-25T12:05:11.519Z,9740
2017-03-25T12:06:11.506Z,9692
2017-03-25T12:07:11.177Z,9748
2017-03-25T12:08:11.482Z,9732
2017-03-25T12:09:11.776Z,9604
2017-03-25T12:10:11.756Z,9588
2017-03-25T12:11:11.755Z,9604
2017-03-25T12:12:11.736Z,9500
2017-03-25T12:13:11.417Z,9576
2017-03-25T12:14:11.468Z,9500
2017-03-25T12:15:11.709Z,9552
2017-03-25T12:16:11.427Z,9500
2017-03-25T12:17:11.375Z,9424
2017-03-25T12:18:11.727Z,9640
2017-03-25T12:19:11.354Z,9592
2017-03-25T12:20:11.348Z,9412
2017-03-25T12:21:11.654Z,9620
2017-03-25T12:22:11.317Z,9656
2017-03-25T12:23:11.324Z,9656
2017-03-25T12:24:11.616Z,9628
2017-03-25T12:25:11.590Z,9692
2017-03-25T12:26:11.276Z,9688
2017-03-25T12:27:11.565Z,9692
2017-03-25T12:28:11.591Z,9652
2017-03-25T12:29:11.235Z,9704
2017-03-25T12:30:11.575Z,9680
2017-03-25T12:31:11.535Z,9544
2017-03-25T12:32:11.546Z,9508
2017-03-25T12:33:11.517Z,9532
2017-03-25T12:34:11.616Z,9544
2017-03-25T12:35:11.478Z,9540
2017-03-25T12:36:11.526Z,9680
2017-03-25T12:37:11.169Z,9496
2017-03-25T12:38:11.169Z,9504
2017-03-25T12:39:11.504Z,9492
2017-03-25T12:40:11.415Z,9536
2017-03-25T12:41:11.425Z,9476
2017-03-25T12:42:11.456Z,9488
2017-03-25T12:43:11.407Z,9368
2017-03-25T12:44:11.085Z,9376
2017-03-25T12:45:11.362Z,9368
2017-03-25T12:46:11.371Z,9444
2017-03-25T12:47:11.024Z,9388
2017-03-25T12:48:11.327Z,9412
2017-03-25T12:49:11.017Z,9380
2017-03-25T12:50:11.308Z,9376
2017-03-25T12:51:11.296Z,9332
2017-03-25T12:52:11.297Z,9424
2017-03-25T12:53:11.284Z,9468
2017-03-25T12:54:11.261Z,9520
2017-03-25T12:55:11.267Z,9436
2017-03-25T12:56:10.928Z,9484
2017-03-25T12:57:11.225Z,9476
2017-03-25T12:58:11.225Z,9556
2017-03-25T12:59:11.207Z,9456
2017-03-25T13:00:11.196Z,9468
2017-03-25T13:01:11.176Z,9460
2017-03-25T13:02:11.155Z,9504
2017-03-25T13:03:10.841Z,9484
2017-03-25T13:04:10.855Z,9492
2017-03-25T13:05:10.833Z,9428
2017-03-25T13:06:11.125Z,9416
2017-03-25T13:07:10.829Z,9504
2017-03-25T13:08:10.786Z,9432
2017-03-25T13:09:11.108Z,9440
2017-03-25T13:10:10.770Z,9448
2017-03-25T13:11:10.767Z,9492
2017-03-25T13:12:11.059Z,9400
2017-03-25T13:13:10.737Z,9404
2017-03-25T13:14:11.037Z,9424
2017-03-25T13:15:11.025Z,9428
2017-03-25T13:16:11.026Z,9408
2017-03-25T13:17:11.184Z,9480
2017-03-25T13:18:11.016Z,9424
2017-03-25T13:19:10.064Z,9472
2017-03-25T13:20:11.136Z,9472
2017-03-25T13:21:10.976Z,9500
2017-03-25T13:22:10.335Z,9508
2017-03-25T13:23:10.316Z,9528
2017-03-25T13:24:11.024Z,9560
2017-03-25T13:25:10.346Z,9624
2017-03-25T13:26:10.937Z,9568
2017-03-25T13:27:10.976Z,9652
2017-03-25T13:28:10.878Z,9676
2017-03-25T13:29:10.890Z,9716
2017-03-25T13:30:10.860Z,9684
2017-03-25T13:31:10.934Z,9696
2017-03-25T13:32:10.897Z,9776
2017-03-25T13:33:10.537Z,9720
2017-03-25T13:34:10.829Z,9804
2017-03-25T13:35:10.489Z,9768
2017-03-25T13:36:10.215Z,9816
2017-03-25T13:37:10.458Z,9852
2017-03-25T13:38:10.811Z,9920
2017-03-25T13:39:10.769Z,9864
2017-03-25T13:40:10.769Z,9896
2017-03-25T13:41:10.125Z,9940
2017-03-25T13:42:10.148Z,10020